createdAt,value
2017-12-15T00:02:09.471Z,79.40
2017-12-15T00:04:38.510Z,79.40
2017-12-15T00:07:07.351Z,79.50
2017-12-15T00:09:36.384Z,79.60
2017-12-15T00:12:05.544Z,79.90
2017-12-15T00:14:34.539Z,79.90
2017-12-15T00:17:03.429Z,80.20
2017-12-15T00:19:32.308Z,80.10
2017-12-15T00:22:01.216Z,79.90
2017-12-15T00:24:30.717Z,79.50
2017-12-15T00:26:59.404Z,79.50
2017-12-15T00:29:28.292Z,79.30
2017-12-15T00:31:57.390Z,79.20
2017-12-15T00:34:26.278Z,78.90
2017-12-15T00:36:55.174Z,78.60
2017-12-15T00:39:24.062Z,78.60
2017-12-15T00:41:53.169Z,78.60
2017-12-15T00:44:22.316Z,78.50
2017-12-15T00:46:51.136Z,78.30
2017-12-15T00:49:19.858Z,78.30
2017-12-15T00:51:48.612Z,78.30
2017-12-15T00:54:18.254Z,78.40
2017-12-15T00:56:47.243Z,78.50
2017-12-15T00:59:16.324Z,78.80
2017-12-15T01:01:45.718Z,78.40
2017-12-15T01:04:14.867Z,78.40
2017-12-15T01:06:43.694Z,78.30
2017-12-15T01:09:12.610Z,78.20
2017-12-15T01:11:41.511Z,78.40
2017-12-15T01:14:10.998Z,78.80
2017-12-15T01:16:39.988Z,78.80
2017-12-15T01:19:08.879Z,79.10
2017-12-15T01:21:39.156Z,79.30
2017-12-15T01:24:10.068Z,79.30
2017-12-15T01:26:39.035Z,79.20
2017-12-15T01:29:09.017Z,79.60
2017-12-15T01:31:38.083Z,79.50
2017-12-15T01:34:07.041Z,79.90
2017-12-15T01:36:36.028Z,79.60
2017-12-15T01:39:05.167Z,79.70
2017-12-15T01:41:34.935Z,80.40
2017-12-15T01:44:04.097Z,80.40
2017-12-15T01:46:33.032Z,81.20
2017-12-15T01:49:01.819Z,81.10
2017-12-15T01:51:30.962Z,81.40
2017-12-15T01:53:59.803Z,81.70
2017-12-15T01:56:28.697Z,83.30
2017-12-15T01:58:57.793Z,83.00
2017-12-15T02:01:26.887Z,84.00
2017-12-15T02:03:55.679Z,84.80
2017-12-15T02:06:24.667Z,84.80
2017-12-15T02:08:54.383Z,86.30
2017-12-15T02:11:23.479Z,86.30
2017-12-15T02:13:53.198Z,86.60
2017-12-15T02:16:22.747Z,84.80
2017-12-15T02:18:51.587Z,84.80
2017-12-15T02:21:21.288Z,84.20
2017-12-15T02:23:50.206Z,84.20
2017-12-15T02:26:19.071Z,84.50
2017-12-15T02:28:47.964Z,84.20
2017-12-15T02:31:17.467Z,84.20
2017-12-15T02:33:46.164Z,84.00
2017-12-15T02:36:15.334Z,84.10
2017-12-15T02:38:44.504Z,84.10
2017-12-15T02:41:13.957Z,84.40
2017-12-15T02:43:42.741Z,84.40
2017-12-15T02:46:11.327Z,84.20
2017-12-15T02:48:40.118Z,84.50
2017-12-15T02:51:08.904Z,84.20
2017-12-15T02:53:37.589Z,84.30
2017-12-15T02:56:06.286Z,84.30
2017-12-15T02:58:35.102Z,84.40
2017-12-15T03:01:03.853Z,84.50
2017-12-15T03:03:32.743Z,84.20
2017-12-15T03:06:01.744Z,84.10
2017-12-15T03:08:30.316Z,84.00
2017-12-15T03:10:58.925Z,84.10
2017-12-15T03:13:27.535Z,84.10
2017-12-15T03:15:56.876Z,84.00
2017-12-15T03:18:25.475Z,83.90
2017-12-15T03:20:54.080Z,84.40
2017-12-15T03:23:22.655Z,84.50
2017-12-15T03:25:51.215Z,84.20
2017-12-15T03:28:19.876Z,84.20
2017-12-15T03:30:49.233Z,84.50
2017-12-15T03:33:18.002Z,84.30
2017-12-15T03:35:46.899Z,84.60
2017-12-15T03:38:15.681Z,84.50
2017-12-15T03:40:44.469Z,84.40
2017-12-15T03:43:13.265Z,84.60
2017-12-15T03:45:41.945Z,84.50
2017-12-15T03:48:10.636Z,84.60
2017-12-15T03:50:39.242Z,84.40
2017-12-15T03:53:08.594Z,84.60
2017-12-15T03:55:37.170Z,84.50
2017-12-15T03:58:05.779Z,85.20
2017-12-15T04:00:34.574Z,84.70
2017-12-15T04:03:04.085Z,84.80
2017-12-15T04:05:32.980Z,84.80
2017-12-15T04:08:01.658Z,84.80
2017-12-15T04:10:30.514Z,85.00
2017-12-15T04:12:59.288Z,84.90
2017-12-15T04:15:28.127Z,84.80
2017-12-15T04:17:56.822Z,84.70
2017-12-15T04:20:25.703Z,85.10
2017-12-15T04:22:54.396Z,85.10
2017-12-15T04:25:23.077Z,85.30
2017-12-15T04:27:51.971Z,85.40
2017-12-15T04:30:20.878Z,85.50
2017-12-15T04:32:49.747Z,85.40
2017-12-15T04:35:19.144Z,85.40
2017-12-15T04:37:48.547Z,85.20
2017-12-15T04:40:17.179Z,85.10
2017-12-15T04:42:45.821Z,85.30
2017-12-15T04:45:14.515Z,85.30
2017-12-15T04:47:43.305Z,85.40
2017-12-15T04:50:12.188Z,85.50
2017-12-15T04:52:40.878Z,85.70
2017-12-15T04:55:09.769Z,85.80
2017-12-15T04:57:38.655Z,85.80
2017-12-15T05:00:07.548Z,85.90
2017-12-15T05:02:37.212Z,86.00
2017-12-15T05:05:06.866Z,86.10
2017-12-15T05:07:36.371Z,86.20
2017-12-15T05:10:05.265Z,86.50
2017-12-15T05:12:34.055Z,86.10
2017-12-15T05:15:02.738Z,86.10
2017-12-15T05:17:31.629Z,86.20
2017-12-15T05:20:00.626Z,86.30
2017-12-15T05:22:29.278Z,86.40
2017-12-15T05:24:57.893Z,86.00
2017-12-15T05:27:26.534Z,86.10
2017-12-15T05:29:55.155Z,85.90
2017-12-15T05:32:23.746Z,85.80
2017-12-15T05:34:52.430Z,85.60
2017-12-15T05:37:21.829Z,85.80
2017-12-15T05:39:50.486Z,85.80
2017-12-15T05:42:19.924Z,85.70
2017-12-15T05:44:48.822Z,85.70
2017-12-15T05:47:17.504Z,85.60
2017-12-15T05:49:46.342Z,86.40
2017-12-15T05:52:14.930Z,85.80
2017-12-15T05:54:43.560Z,86.10
2017-12-15T05:57:13.321Z,86.10
2017-12-15T05:59:42.775Z,85.60
2017-12-15T06:02:11.352Z,85.60
2017-12-15T06:04:40.003Z,85.70
2017-12-15T06:07:08.591Z,85.30
2017-12-15T06:09:37.231Z,85.20
2017-12-15T06:12:05.848Z,85.10
2017-12-15T06:14:35.192Z,85.20
2017-12-15T06:17:03.987Z,85.10
2017-12-15T06:19:32.690Z,85.30
2017-12-15T06:22:01.365Z,85.50
2017-12-15T06:24:29.946Z,85.30
2017-12-15T06:26:58.562Z,85.20
2017-12-15T06:29:27.215Z,85.00
2017-12-15T06:31:55.911Z,84.60
2017-12-15T06:34:24.551Z,84.70
2017-12-15T06:36:53.185Z,84.20
2017-12-15T06:39:21.846Z,84.10
2017-12-15T06:41:50.472Z,84.00
2017-12-15T06:44:19.146Z,84.00
2017-12-15T06:46:47.938Z,83.90
2017-12-15T06:49:16.788Z,83.80
2017-12-15T06:51:45.496Z,83.50
2017-12-15T06:54:14.149Z,83.60
2017-12-15T06:56:42.823Z,83.40
2017-12-15T06:59:11.460Z,83.40
2017-12-15T07:01:40.085Z,83.10
2017-12-15T07:04:09.490Z,82.50
2017-12-15T07:06:38.837Z,82.70
2017-12-15T07:09:07.393Z,82.60
2017-12-15T07:11:36.058Z,82.30
2017-12-15T07:14:04.691Z,81.20
2017-12-15T07:16:33.466Z,80.70
2017-12-15T07:19:02.196Z,80.10
2017-12-15T07:21:30.958Z,79.70
2017-12-15T07:23:59.532Z,79.70
2017-12-15T07:26:28.132Z,78.50
2017-12-15T07:28:56.696Z,78.50
2017-12-15T07:31:25.295Z,78.00
2017-12-15T07:33:53.918Z,78.40
2017-12-15T07:36:22.546Z,77.10
2017-12-15T07:38:51.145Z,76.90
2017-12-15T07:41:20.598Z,77.00
2017-12-15T07:43:50.303Z,76.90
2017-12-15T07:46:19.151Z,77.00
2017-12-15T07:48:47.838Z,77.40
2017-12-15T07:51:16.483Z,77.20
2017-12-15T07:53:45.127Z,76.50
2017-12-15T07:56:13.892Z,75.50
2017-12-15T07:58:42.684Z,75.20
2017-12-15T08:01:11.470Z,75.00
2017-12-15T08:03:40.167Z,73.80
2017-12-15T08:06:08.842Z,73.40
2017-12-15T08:08:37.447Z,72.10
2017-12-15T08:11:06.169Z,72.70
2017-12-15T08:13:34.766Z,70.80
2017-12-15T08:16:03.338Z,70.60
2017-12-15T08:18:32.074Z,70.40
2017-12-15T08:21:00.793Z,69.90
2017-12-15T08:23:29.390Z,69.50
2017-12-15T08:25:58.792Z,69.40
2017-12-15T08:28:27.368Z,69.30
2017-12-15T08:30:56.761Z,69.90
2017-12-15T08:33:25.492Z,69.80
2017-12-15T08:35:54.106Z,70.00
2017-12-15T08:38:22.686Z,69.70
2017-12-15T08:40:51.372Z,69.80
2017-12-15T08:43:20.057Z,69.70
2017-12-15T08:45:48.729Z,70.00
2017-12-15T08:48:17.635Z,68.80
2017-12-15T08:50:47.690Z,67.90
2017-12-15T08:53:16.402Z,67.90
2017-12-15T08:55:45.817Z,66.30
2017-12-15T08:58:14.426Z,66.20
2017-12-15T09:00:43.935Z,66.00
2017-12-15T09:03:13.391Z,65.40
2017-12-15T09:05:41.989Z,65.40
2017-12-15T09:08:10.631Z,64.20
2017-12-15T09:10:39.279Z,63.80
2017-12-15T09:13:08.081Z,62.90
2017-12-15T09:15:38.201Z,62.80
2017-12-15T09:18:07.102Z,62.80
2017-12-15T09:20:35.732Z,61.20
2017-12-15T09:23:04.463Z,60.40
2017-12-15T09:25:33.314Z,59.30
2017-12-15T09:28:02.070Z,59.40
2017-12-15T09:30:31.546Z,59.40
2017-12-15T09:33:00.167Z,58.90
2017-12-15T09:35:28.806Z,58.30
2017-12-15T09:37:57.412Z,59.00
2017-12-15T09:40:26.060Z,58.80
2017-12-15T09:42:54.663Z,59.70
2017-12-15T09:45:23.253Z,58.10
2017-12-15T09:47:52.125Z,57.70
2017-12-15T09:50:20.788Z,57.60
2017-12-15T09:52:49.408Z,58.00
2017-12-15T09:55:18.038Z,56.70
2017-12-15T09:57:47.510Z,56.80
2017-12-15T10:00:16.183Z,56.70
2017-12-15T10:02:45.094Z,57.30
2017-12-15T10:05:13.770Z,56.90
2017-12-15T10:07:42.452Z,57.00
2017-12-15T10:10:11.178Z,57.10
2017-12-15T10:12:39.941Z,56.90
2017-12-15T10:15:08.544Z,56.40
2017-12-15T10:17:37.166Z,56.80
2017-12-15T10:20:06.557Z,57.10
2017-12-15T10:22:35.243Z,57.00
2017-12-15T10:25:03.963Z,56.40
2017-12-15T10:27:32.649Z,56.20
2017-12-15T10:30:01.254Z,55.90
2017-12-15T10:32:29.876Z,56.90
2017-12-15T10:34:58.482Z,56.50
2017-12-15T10:37:27.828Z,55.90
2017-12-15T10:39:56.445Z,55.80
2017-12-15T10:42:25.902Z,55.60
2017-12-15T10:44:54.496Z,55.60
2017-12-15T10:47:23.377Z,55.20
2017-12-15T10:49:52.033Z,55.80
2017-12-15T10:52:20.608Z,55.40
2017-12-15T10:54:49.999Z,55.50
2017-12-15T10:57:18.618Z,55.50
2017-12-15T10:59:47.187Z,55.00
2017-12-15T11:02:16.634Z,53.90
2017-12-15T11:04:45.206Z,53.90
2017-12-15T11:07:14.552Z,53.80
2017-12-15T11:09:43.192Z,53.80
2017-12-15T11:12:11.787Z,53.30
2017-12-15T11:14:41.501Z,53.20
2017-12-15T11:17:19.288Z,52.80
2017-12-15T11:19:48.078Z,53.20
2017-12-15T11:22:16.759Z,53.30
2017-12-15T11:24:45.446Z,53.40
2017-12-15T11:27:14.125Z,53.40
2017-12-15T11:29:42.756Z,54.00
2017-12-15T11:32:11.498Z,54.20
2017-12-15T11:34:40.146Z,54.80
2017-12-15T11:37:09.929Z,55.40
2017-12-15T11:39:38.692Z,55.30
2017-12-15T11:42:07.390Z,55.70
2017-12-15T11:44:36.017Z,55.50
2017-12-15T11:47:04.832Z,55.40
2017-12-15T11:49:33.540Z,55.60
2017-12-15T11:52:02.329Z,56.40
2017-12-15T11:54:30.974Z,56.70
2017-12-15T11:56:59.619Z,56.40
2017-12-15T11:59:28.250Z,56.30
2017-12-15T12:01:57.675Z,56.80
2017-12-15T12:04:26.244Z,56.80
2017-12-15T12:06:54.849Z,56.50
2017-12-15T12:09:23.539Z,57.20
2017-12-15T12:11:52.185Z,56.90
2017-12-15T12:14:20.856Z,57.10
2017-12-15T12:16:49.567Z,57.20
2017-12-15T12:19:18.287Z,57.40
2017-12-15T12:21:47.858Z,57.00
2017-12-15T12:24:17.330Z,56.90
2017-12-15T12:26:45.942Z,56.70
2017-12-15T12:29:14.667Z,56.10
2017-12-15T12:31:43.352Z,56.00
2017-12-15T12:34:12.040Z,55.80
2017-12-15T12:36:40.683Z,55.90
2017-12-15T12:39:09.415Z,56.10
2017-12-15T12:41:38.006Z,55.60
2017-12-15T12:44:07.513Z,55.30
2017-12-15T12:46:36.288Z,55.20
2017-12-15T12:49:04.870Z,55.40
2017-12-15T12:51:33.661Z,55.80
2017-12-15T12:54:02.300Z,58.20
2017-12-15T12:56:30.962Z,65.80
2017-12-15T12:58:59.569Z,68.80
2017-12-15T13:01:28.304Z,70.80
2017-12-15T13:03:56.894Z,72.30
2017-12-15T13:06:25.678Z,72.80
2017-12-15T13:08:54.567Z,73.60
2017-12-15T13:11:23.146Z,74.80
2017-12-15T13:13:51.940Z,76.30
2017-12-15T13:16:20.634Z,77.00
2017-12-15T13:18:49.928Z,77.40
2017-12-15T13:21:18.624Z,77.50
2017-12-15T13:23:47.505Z,77.40
2017-12-15T13:26:16.402Z,77.40
2017-12-15T13:28:45.043Z,78.00
2017-12-15T13:31:13.832Z,78.60
2017-12-15T13:33:43.319Z,78.60
2017-12-15T13:36:11.948Z,79.10
2017-12-15T13:38:40.624Z,79.40
2017-12-15T13:41:09.298Z,79.30
2017-12-15T13:43:37.969Z,79.40
2017-12-15T13:46:07.440Z,79.30
2017-12-15T13:48:36.063Z,79.20
2017-12-15T13:51:05.474Z,79.20
2017-12-15T13:53:34.180Z,79.20
2017-12-15T13:56:02.779Z,79.70
2017-12-15T13:58:31.331Z,79.60
2017-12-15T14:00:59.960Z,80.10
2017-12-15T14:03:28.584Z,79.80
2017-12-15T14:05:57.942Z,79.60
2017-12-15T14:08:26.561Z,79.50
2017-12-15T14:10:55.164Z,77.60
2017-12-15T14:13:24.526Z,79.10
2017-12-15T14:15:53.275Z,79.10
2017-12-15T14:18:21.946Z,78.90
2017-12-15T14:20:50.569Z,79.40
2017-12-15T14:23:19.204Z,79.40
2017-12-15T14:25:47.848Z,79.60
2017-12-15T14:28:16.501Z,79.10
2017-12-15T14:30:45.171Z,79.10
2017-12-15T14:33:14.607Z,79.30
2017-12-15T14:35:44.062Z,79.70
2017-12-15T14:38:12.743Z,79.60
2017-12-15T14:40:41.327Z,79.70
2017-12-15T14:43:10.734Z,79.70
2017-12-15T14:45:39.573Z,79.60
2017-12-15T14:48:08.267Z,79.30
2017-12-15T14:50:36.866Z,79.40
2017-12-15T14:53:05.634Z,79.00
2017-12-15T14:55:34.459Z,78.90
2017-12-15T14:58:03.074Z,79.10
2017-12-15T15:00:31.821Z,79.70
2017-12-15T15:03:00.582Z,80.20
2017-12-15T15:05:29.180Z,80.40
2017-12-15T15:07:57.957Z,80.60
2017-12-15T15:10:26.636Z,80.70
2017-12-15T15:12:55.327Z,80.80
2017-12-15T15:15:24.010Z,80.60
2017-12-15T15:17:52.666Z,80.80
2017-12-15T15:20:22.106Z,77.80
2017-12-15T15:22:50.751Z,77.80
2017-12-15T15:25:19.412Z,79.10
2017-12-15T15:27:48.078Z,80.50
2017-12-15T15:30:16.700Z,81.10
2017-12-15T15:32:45.364Z,81.40
2017-12-15T15:35:14.119Z,81.00
2017-12-15T15:37:43.214Z,81.80
2017-12-15T15:40:11.997Z,81.30
2017-12-15T15:42:40.903Z,81.50
2017-12-15T15:45:09.833Z,81.30
2017-12-15T15:47:38.595Z,81.30
2017-12-15T15:50:07.463Z,81.00
2017-12-15T15:52:36.263Z,81.70
2017-12-15T15:55:05.093Z,80.90
2017-12-15T15:57:33.822Z,81.10
2017-12-15T16:00:02.603Z,80.60
2017-12-15T16:02:31.318Z,80.00
2017-12-15T16:05:00.080Z,80.60
2017-12-15T16:07:28.901Z,81.20
2017-12-15T16:09:58.349Z,81.90
2017-12-15T16:12:27.108Z,81.70
2017-12-15T16:14:55.880Z,81.80
2017-12-15T16:17:25.298Z,81.80
2017-12-15T16:19:53.942Z,81.80
2017-12-15T16:22:22.691Z,82.00
2017-12-15T16:24:51.347Z,82.40
2017-12-15T16:27:20.023Z,82.50
2017-12-15T16:29:48.731Z,82.70
2017-12-15T16:32:17.346Z,82.60
2017-12-15T16:34:46.061Z,82.90
2017-12-15T16:37:14.875Z,83.20
2017-12-15T16:39:44.484Z,83.60
2017-12-15T16:42:13.170Z,83.50
2017-12-15T16:44:41.825Z,83.40
2017-12-15T16:47:10.479Z,83.50
2017-12-15T16:49:39.212Z,83.50
2017-12-15T16:52:08.009Z,83.70
2017-12-15T16:54:37.494Z,83.60
2017-12-15T16:57:06.321Z,83.60
2017-12-15T16:59:35.121Z,83.70
2017-12-15T17:02:04.637Z,83.60
2017-12-15T17:04:34.118Z,83.80
2017-12-15T17:07:03.671Z,84.00
2017-12-15T17:09:32.473Z,84.00
2017-12-15T17:12:01.775Z,84.20
2017-12-15T17:14:36.244Z,84.20
2017-12-15T17:17:05.230Z,84.20
2017-12-15T17:19:34.816Z,84.30
2017-12-15T17:22:04.524Z,81.80
2017-12-15T17:24:34.052Z,83.80
2017-12-15T17:27:03.483Z,83.90
2017-12-15T17:29:33.140Z,84.00
2017-12-15T17:32:02.991Z,83.90
2017-12-15T17:34:40.092Z,83.90
2017-12-15T17:37:08.848Z,83.20
2017-12-15T17:39:37.512Z,83.70
2017-12-15T17:42:06.202Z,83.80
2017-12-15T17:44:34.866Z,84.00
2017-12-15T17:47:04.489Z,83.90
2017-12-15T17:49:34.901Z,83.50
2017-12-15T17:52:03.736Z,83.60
2017-12-15T17:54:32.405Z,83.30
2017-12-15T17:57:01.190Z,83.30
2017-12-15T17:59:29.838Z,82.60
2017-12-15T18:01:58.473Z,82.20
2017-12-15T18:04:27.114Z,77.90
2017-12-15T18:06:55.758Z,72.90
2017-12-15T18:09:25.224Z,62.70
2017-12-15T18:11:53.882Z,62.60
2017-12-15T18:14:22.803Z,61.90
2017-12-15T18:16:51.543Z,60.50
2017-12-15T18:19:21.036Z,58.50
2017-12-15T18:21:50.511Z,57.90
2017-12-15T18:24:19.180Z,57.70
2017-12-15T18:26:48.900Z,57.30
2017-12-15T18:29:17.678Z,57.30
2017-12-15T18:31:46.345Z,57.30
2017-12-15T18:34:15.076Z,57.30
2017-12-15T18:36:44.152Z,55.80
2017-12-15T18:39:12.903Z,55.80
2017-12-15T18:41:41.626Z,56.30
2017-12-15T18:44:10.566Z,56.20
2017-12-15T18:46:40.030Z,56.10
2017-12-15T18:49:08.707Z,55.30
2017-12-15T18:51:37.499Z,55.50
2017-12-15T18:54:06.286Z,55.10
2017-12-15T18:56:35.181Z,54.20
2017-12-15T18:59:04.068Z,54.80
2017-12-15T19:01:32.961Z,54.50
2017-12-15T19:04:02.669Z,53.80
2017-12-15T19:06:31.561Z,53.80
2017-12-15T19:09:01.273Z,54.70
2017-12-15T19:11:30.426Z,54.70
2017-12-15T19:14:00.239Z,54.60
2017-12-15T19:16:29.746Z,55.00
2017-12-15T19:18:58.679Z,54.20
2017-12-15T19:21:27.377Z,54.30
2017-12-15T19:23:57.076Z,54.60
2017-12-15T19:26:25.983Z,54.60
2017-12-15T19:28:55.682Z,55.10
2017-12-15T19:31:24.567Z,55.10
2017-12-15T19:33:53.461Z,54.60
2017-12-15T19:36:22.352Z,55.20
2017-12-15T19:38:51.241Z,54.10
2017-12-15T19:41:19.974Z,55.20
2017-12-15T19:43:48.719Z,55.00
2017-12-15T19:46:17.915Z,54.80
2017-12-15T19:48:47.012Z,55.00
2017-12-15T19:51:15.901Z,55.00
2017-12-15T19:53:45.405Z,55.00
2017-12-15T19:56:14.301Z,54.90
2017-12-15T19:58:43.289Z,54.60
2017-12-15T20:01:12.179Z,55.10
2017-12-15T20:03:41.071Z,55.00
2017-12-15T20:06:10.167Z,55.30
2017-12-15T20:08:39.059Z,55.30
2017-12-15T20:11:07.951Z,55.30
2017-12-15T20:13:36.840Z,55.90
2017-12-15T20:16:05.936Z,55.50
2017-12-15T20:18:34.826Z,55.80
2017-12-15T20:21:03.725Z,55.80
2017-12-15T20:23:32.610Z,55.90
2017-12-15T20:28:36.126Z,55.90
2017-12-15T20:31:05.016Z,56.20
2017-12-15T20:33:33.913Z,56.20
2017-12-15T20:36:02.800Z,56.60
2017-12-15T20:38:32.409Z,56.60
2017-12-15T20:41:01.314Z,56.60
2017-12-15T20:43:30.241Z,56.70
2017-12-15T20:45:58.979Z,56.80
2017-12-15T20:48:27.876Z,56.90
2017-12-15T20:50:56.762Z,56.70
2017-12-15T20:53:25.586Z,57.10
2017-12-15T20:55:54.334Z,56.30
2017-12-15T20:58:23.021Z,56.40
2017-12-15T21:00:52.322Z,56.20
2017-12-15T21:03:21.215Z,56.70
2017-12-15T21:05:50.112Z,56.80
2017-12-15T21:08:18.998Z,56.40
2017-12-15T21:10:47.888Z,55.80
2017-12-15T21:13:16.779Z,56.30
2017-12-15T21:15:45.669Z,56.30
2017-12-15T21:18:14.563Z,57.10
2017-12-15T21:20:43.348Z,57.20
2017-12-15T21:23:12.238Z,56.80
2017-12-15T21:25:41.130Z,56.30
2017-12-15T21:28:10.020Z,56.50
2017-12-15T21:30:38.811Z,56.30
2017-12-15T21:33:07.495Z,56.80
2017-12-15T21:35:36.185Z,57.20
2017-12-15T21:38:05.073Z,57.50
2017-12-15T21:40:33.963Z,57.40
2017-12-15T21:43:02.666Z,57.50
2017-12-15T21:45:31.541Z,57.70
2017-12-15T21:48:00.433Z,58.20
2017-12-15T21:50:29.227Z,58.30
2017-12-15T21:52:58.113Z,58.80
2017-12-15T21:55:27.009Z,58.50
2017-12-15T21:57:55.690Z,58.50
2017-12-15T22:00:24.479Z,58.80
2017-12-15T22:02:54.187Z,59.20
2017-12-15T22:05:23.079Z,59.20
2017-12-15T22:07:51.867Z,58.70
2017-12-15T22:10:20.554Z,59.00
2017-12-15T22:12:49.248Z,58.50
2017-12-15T22:15:18.138Z,58.80
2017-12-15T22:17:47.026Z,59.00
2017-12-15T22:20:15.814Z,58.80
2017-12-15T22:22:44.701Z,58.70
2017-12-15T22:25:13.541Z,58.90
2017-12-15T22:27:43.917Z,59.20
2017-12-15T22:30:12.818Z,59.20
2017-12-15T22:32:41.596Z,59.80
2017-12-15T22:35:10.285Z,59.50
2017-12-15T22:37:39.176Z,59.10
2017-12-15T22:40:08.066Z,60.10
2017-12-15T22:42:37.777Z,59.70
2017-12-15T22:45:06.667Z,59.80
2017-12-15T22:47:36.536Z,59.10
2017-12-15T22:50:05.478Z,59.10
2017-12-15T22:52:34.363Z,58.90
2017-12-15T22:55:03.261Z,59.00
2017-12-15T22:57:32.350Z,59.50
2017-12-15T23:00:01.043Z,58.70
2017-12-15T23:02:31.569Z,58.90
2017-12-15T23:05:00.456Z,58.90
2017-12-15T23:07:29.364Z,59.60
2017-12-15T23:09:58.410Z,60.40
2017-12-15T23:12:27.344Z,60.30
2017-12-15T23:14:57.044Z,59.90
2017-12-15T23:17:25.887Z,59.90
2017-12-15T23:19:54.894Z,60.60
2017-12-15T23:22:23.617Z,59.80
2017-12-15T23:24:52.405Z,60.40
2017-12-15T23:27:21.496Z,60.10
2017-12-15T23:29:50.296Z,59.80
2017-12-15T23:32:18.977Z,60.20
2017-12-15T23:34:47.866Z,60.60
2017-12-15T23:37:16.551Z,60.90
2017-12-15T23:39:45.450Z,61.30
2017-12-15T23:42:14.443Z,61.40
2017-12-15T23:44:43.331Z,61.60
2017-12-15T23:47:12.229Z,61.70
2017-12-15T23:49:41.011Z,62.00
2017-12-15T23:52:09.903Z,62.50
2017-12-15T23:54:51.287Z,62.90
2017-12-15T23:57:20.793Z,63.00
2017-12-15T23:59:49.476Z,63.00
